sensor_id;sensor_type;location;lat;lon;timestamp;P1;durP1;ratioP1;P2;durP2;ratioP2
6463;SDS011;3265;42.694;23.282;2024-03-07T00:10:37;33.07;;;21.40;;
6463;SDS011;3265;42.694;23.282;2024-03-07T00:13:22;34.10;;;21.53;;
6463;SDS011;3265;42.694;23.282;2024-03-07T00:18:50;36.70;;;21.93;;
6463;SDS011;3265;42.694;23.282;2024-03-07T00:56:56;27.07;;;17.67;;
6463;SDS011;3265;42.694;23.282;2024-03-07T01:02:49;26.57;;;17.70;;
6463;SDS011;3265;42.694;23.282;2024-03-07T01:05:30;23.63;;;17.03;;
6463;SDS011;3265;42.694;23.282;2024-03-07T01:11:57;23.77;;;16.47;;
6463;SDS011;3265;42.694;23.282;2024-03-07T01:14:41;25.53;;;16.53;;
6463;SDS011;3265;42.694;23.282;2024-03-07T01:20:54;27.93;;;16.90;;
6463;SDS011;3265;42.694;23.282;2024-03-07T01:26:30;22.83;;;16.17;;
6463;SDS011;3265;42.694;23.282;2024-03-07T01:29:08;25.00;;;16.57;;
6463;SDS011;3265;42.694;23.282;2024-03-07T01:31:41;24.10;;;15.80;;
6463;SDS011;3265;42.694;23.282;2024-03-07T01:34:24;23.43;;;16.43;;
6463;SDS011;3265;42.694;23.282;2024-03-07T01:37:08;26.60;;;16.87;;
6463;SDS011;3265;42.694;23.282;2024-03-07T01:39:59;24.70;;;16.20;;
6463;SDS011;3265;42.694;23.282;2024-03-07T01:42:40;23.53;;;16.37;;
6463;SDS011;3265;42.694;23.282;2024-03-07T01:45:19;24.20;;;16.10;;
6463;SDS011;3265;42.694;23.282;2024-03-07T01:47:55;24.93;;;16.50;;
6463;SDS011;3265;42.694;23.282;2024-03-07T01:50:29;23.70;;;16.43;;
6463;SDS011;3265;42.694;23.282;2024-03-07T01:53:07;22.23;;;15.70;;
6463;SDS011;3265;42.694;23.282;2024-03-07T01:56:02;24.17;;;16.13;;
6463;SDS011;3265;42.694;23.282;2024-03-07T01:58:34;23.70;;;15.87;;
6463;SDS011;3265;42.694;23.282;2024-03-07T02:02:12;24.93;;;15.53;;
6463;SDS011;3265;42.694;23.282;2024-03-07T02:08:01;22.70;;;15.63;;
6463;SDS011;3265;42.694;23.282;2024-03-07T02:12:57;22.60;;;15.73;;
6463;SDS011;3265;42.694;23.282;2024-03-07T02:15:36;23.23;;;15.03;;
6463;SDS011;3265;42.694;23.282;2024-03-07T02:18:12;21.10;;;14.57;;
6463;SDS011;3265;42.694;23.282;2024-03-07T02:21:07;22.60;;;15.90;;
6463;SDS011;3265;42.694;23.282;2024-03-07T02:23:45;21.50;;;14.40;;
6463;SDS011;3265;42.694;23.282;2024-03-07T02:26:24;20.60;;;14.77;;
6463;SDS011;3265;42.694;23.282;2024-03-07T02:31:51;26.00;;;15.03;;
6463;SDS011;3265;42.694;23.282;2024-03-07T03:01:51;9.83;;;7.77;;
6463;SDS011;3265;42.694;23.282;2024-03-07T03:14:33;4.67;;;2.87;;
6463;SDS011;3265;42.694;23.282;2024-03-07T03:17:20;3.90;;;3.10;;
6463;SDS011;3265;42.694;23.282;2024-03-07T03:29:14;8.10;;;4.73;;
6463;SDS011;3265;42.694;23.282;2024-03-07T03:31:43;8.33;;;4.83;;
6463;SDS011;3265;42.694;23.282;2024-03-07T03:34:14;9.57;;;6.03;;
6463;SDS011;3265;42.694;23.282;2024-03-07T03:36:42;11.60;;;7.60;;
6463;SDS011;3265;42.694;23.282;2024-03-07T03:39:13;11.77;;;8.13;;
6463;SDS011;3265;42.694;23.282;2024-03-07T03:41:43;15.57;;;9.67;;
6463;SDS011;3265;42.694;23.282;2024-03-07T03:44:28;15.53;;;9.87;;
6463;SDS011;3265;42.694;23.282;2024-03-07T03:47:14;16.80;;;10.63;;
6463;SDS011;3265;42.694;23.282;2024-03-07T03:50:10;16.07;;;9.70;;
6463;SDS011;3265;42.694;23.282;2024-03-07T03:52:56;14.00;;;9.17;;
6463;SDS011;3265;42.694;23.282;2024-03-07T03:55:37;12.37;;;8.27;;
6463;SDS011;3265;42.694;23.282;2024-03-07T03:58:05;11.57;;;8.00;;
6463;SDS011;3265;42.694;23.282;2024-03-07T04:00:34;12.10;;;7.23;;
6463;SDS011;3265;42.694;23.282;2024-03-07T04:03:01;6.70;;;5.40;;
6463;SDS011;3265;42.694;23.282;2024-03-07T04:05:32;7.27;;;5.00;;
6463;SDS011;3265;42.694;23.282;2024-03-07T04:08:08;9.00;;;4.73;;
6463;SDS011;3265;42.694;23.282;2024-03-07T04:10:47;5.53;;;4.50;;
6463;SDS011;3265;42.694;23.282;2024-03-07T04:13:14;6.47;;;4.70;;
6463;SDS011;3265;42.694;23.282;2024-03-07T04:16:01;5.47;;;3.80;;
6463;SDS011;3265;42.694;23.282;2024-03-07T04:18:29;4.87;;;3.83;;
6463;SDS011;3265;42.694;23.282;2024-03-07T04:21:00;4.57;;;3.40;;
6463;SDS011;3265;42.694;23.282;2024-03-07T04:23:40;3.60;;;3.13;;
6463;SDS011;3265;42.694;23.282;2024-03-07T04:28:57;4.33;;;3.43;;
6463;SDS011;3265;42.694;23.282;2024-03-07T04:31:44;4.97;;;3.60;;
6463;SDS011;3265;42.694;23.282;2024-03-07T04:37:58;3.90;;;2.77;;
6463;SDS011;3265;42.694;23.282;2024-03-07T04:40:58;7.70;;;3.13;;
6463;SDS011;3265;42.694;23.282;2024-03-07T04:43:49;4.70;;;3.33;;
6463;SDS011;3265;42.694;23.282;2024-03-07T04:46:22;3.90;;;2.80;;
6463;SDS011;3265;42.694;23.282;2024-03-07T04:48:57;3.17;;;2.40;;
6463;SDS011;3265;42.694;23.282;2024-03-07T04:51:38;3.87;;;2.13;;
6463;SDS011;3265;42.694;23.282;2024-03-07T04:54:06;2.50;;;2.00;;
6463;SDS011;3265;42.694;23.282;2024-03-07T04:56:33;2.43;;;2.20;;
6463;SDS011;3265;42.694;23.282;2024-03-07T04:59:06;2.30;;;2.10;;
6463;SDS011;3265;42.694;23.282;2024-03-07T05:01:49;3.40;;;2.13;;
6463;SDS011;3265;42.694;23.282;2024-03-07T05:04:18;2.77;;;2.07;;
6463;SDS011;3265;42.694;23.282;2024-03-07T05:07:07;2.73;;;2.40;;
6463;SDS011;3265;42.694;23.282;2024-03-07T05:09:34;3.33;;;2.50;;
6463;SDS011;3265;42.694;23.282;2024-03-07T05:12:01;3.70;;;2.43;;
6463;SDS011;3265;42.694;23.282;2024-03-07T06:11:12;6.43;;;4.53;;
6463;SDS011;3265;42.694;23.282;2024-03-07T06:13:47;6.30;;;4.10;;
6463;SDS011;3265;42.694;23.282;2024-03-07T06:22:31;10.07;;;5.47;;
6463;SDS011;3265;42.694;23.282;2024-03-07T06:24:58;8.00;;;4.37;;
6463;SDS011;3265;42.694;23.282;2024-03-07T06:27:32;6.70;;;4.27;;
6463;SDS011;3265;42.694;23.282;2024-03-07T06:35:56;6.07;;;4.17;;
6463;SDS011;3265;42.694;23.282;2024-03-07T06:39:07;6.20;;;4.47;;
6463;SDS011;3265;42.694;23.282;2024-03-07T06:41:35;6.00;;;4.33;;
6463;SDS011;3265;42.694;23.282;2024-03-07T06:44:02;5.60;;;4.40;;
6463;SDS011;3265;42.694;23.282;2024-03-07T06:46:30;5.77;;;4.27;;
6463;SDS011;3265;42.694;23.282;2024-03-07T07:01:34;7.27;;;5.73;;
6463;SDS011;3265;42.694;23.282;2024-03-07T07:07:12;6.13;;;4.87;;
6463;SDS011;3265;42.694;23.282;2024-03-07T07:09:53;6.27;;;4.90;;
6463;SDS011;3265;42.694;23.282;2024-03-07T07:12:32;6.77;;;5.20;;
6463;SDS011;3265;42.694;23.282;2024-03-07T07:15:00;5.77;;;4.87;;
6463;SDS011;3265;42.694;23.282;2024-03-07T07:17:34;7.93;;;5.60;;
6463;SDS011;3265;42.694;23.282;2024-03-07T07:20:11;6.97;;;4.70;;
6463;SDS011;3265;42.694;23.282;2024-03-07T07:22:40;5.50;;;4.50;;
6463;SDS011;3265;42.694;23.282;2024-03-07T07:25:07;6.03;;;4.40;;
6463;SDS011;3265;42.694;23.282;2024-03-07T07:27:39;6.03;;;4.73;;
6463;SDS011;3265;42.694;23.282;2024-03-07T07:30:08;10.67;;;5.93;;
6463;SDS011;3265;42.694;23.282;2024-03-07T07:32:37;7.23;;;5.23;;
6463;SDS011;3265;42.694;23.282;2024-03-07T07:35:05;6.67;;;5.00;;
6463;SDS011;3265;42.694;23.282;2024-03-07T07:37:36;8.17;;;5.33;;
6463;SDS011;3265;42.694;23.282;2024-03-07T07:40:04;6.53;;;5.23;;
6463;SDS011;3265;42.694;23.282;2024-03-07T07:42:33;6.67;;;5.10;;
6463;SDS011;3265;42.694;23.282;2024-03-07T07:45:00;9.87;;;5.33;;
6463;SDS011;3265;42.694;23.282;2024-03-07T07:47:27;6.97;;;5.00;;
6463;SDS011;3265;42.694;23.282;2024-03-07T07:49:55;4.67;;;4.20;;
6463;SDS011;3265;42.694;23.282;2024-03-07T07:52:22;6.70;;;4.87;;
6463;SDS011;3265;42.694;23.282;2024-03-07T07:54:49;6.83;;;4.67;;
6463;SDS011;3265;42.694;23.282;2024-03-07T07:57:18;7.87;;;4.77;;
6463;SDS011;3265;42.694;23.282;2024-03-07T07:59:55;6.17;;;4.70;;
6463;SDS011;3265;42.694;23.282;2024-03-07T08:02:22;7.47;;;5.10;;
6463;SDS011;3265;42.694;23.282;2024-03-07T08:04:49;8.60;;;5.10;;
6463;SDS011;3265;42.694;23.282;2024-03-07T08:07:28;8.33;;;6.43;;
6463;SDS011;3265;42.694;23.282;2024-03-07T08:09:55;7.90;;;5.50;;
6463;SDS011;3265;42.694;23.282;2024-03-07T08:12:22;8.40;;;5.40;;
6463;SDS011;3265;42.694;23.282;2024-03-07T08:14:49;8.07;;;5.77;;
6463;SDS011;3265;42.694;23.282;2024-03-07T08:17:16;7.13;;;5.20;;
6463;SDS011;3265;42.694;23.282;2024-03-07T08:19:42;9.67;;;5.03;;
6463;SDS011;3265;42.694;23.282;2024-03-07T08:22:09;10.33;;;5.43;;
6463;SDS011;3265;42.694;23.282;2024-03-07T08:24:37;6.20;;;5.00;;
6463;SDS011;3265;42.694;23.282;2024-03-07T08:27:04;6.20;;;4.90;;
6463;SDS011;3265;42.694;23.282;2024-03-07T08:39:01;7.53;;;5.20;;
6463;SDS011;3265;42.694;23.282;2024-03-07T08:41:54;8.70;;;5.37;;
6463;SDS011;3265;42.694;23.282;2024-03-07T08:44:22;8.20;;;5.67;;
6463;SDS011;3265;42.694;23.282;2024-03-07T08:47:10;7.13;;;5.37;;
6463;SDS011;3265;42.694;23.282;2024-03-07T08:55:56;8.27;;;6.33;;
6463;SDS011;3265;42.694;23.282;2024-03-07T09:02:02;7.07;;;5.23;;
6463;SDS011;3265;42.694;23.282;2024-03-07T09:06:56;6.18;;;4.05;;
6463;SDS011;3265;42.694;23.282;2024-03-07T09:09:51;6.43;;;4.10;;
6463;SDS011;3265;42.694;23.282;2024-03-07T09:12:40;5.80;;;4.17;;
6463;SDS011;3265;42.694;23.282;2024-03-07T09:15:19;5.73;;;4.27;;
6463;SDS011;3265;42.694;23.282;2024-03-07T09:18:14;11.77;;;4.73;;
6463;SDS011;3265;42.694;23.282;2024-03-07T09:24:14;5.90;;;4.73;;
6463;SDS011;3265;42.694;23.282;2024-03-07T09:27:09;12.43;;;4.80;;
6463;SDS011;3265;42.694;23.282;2024-03-07T09:47:55;8.67;;;5.70;;
6463;SDS011;3265;42.694;23.282;2024-03-07T09:50:40;9.80;;;5.90;;
6463;SDS011;3265;42.694;23.282;2024-03-07T10:04:53;8.20;;;5.53;;
6463;SDS011;3265;42.694;23.282;2024-03-07T10:13:54;7.40;;;5.47;;
6463;SDS011;3265;42.694;23.282;2024-03-07T10:25:54;8.43;;;5.07;;
6463;SDS011;3265;42.694;23.282;2024-03-07T10:28:26;7.60;;;5.53;;
6463;SDS011;3265;42.694;23.282;2024-03-07T10:34:31;7.10;;;5.80;;
6463;SDS011;3265;42.694;23.282;2024-03-07T10:46:38;6.87;;;5.40;;
6463;SDS011;3265;42.694;23.282;2024-03-07T11:06:52;6.50;;;5.27;;
6463;SDS011;3265;42.694;23.282;2024-03-07T11:09:21;6.33;;;5.00;;
6463;SDS011;3265;42.694;23.282;2024-03-07T11:11:54;8.77;;;5.30;;
6463;SDS011;3265;42.694;23.282;2024-03-07T11:14:22;7.77;;;5.60;;
6463;SDS011;3265;42.694;23.282;2024-03-07T11:16:50;7.20;;;5.40;;
6463;SDS011;3265;42.694;23.282;2024-03-07T11:19:17;8.73;;;5.67;;
6463;SDS011;3265;42.694;23.282;2024-03-07T11:21:53;8.93;;;4.63;;
6463;SDS011;3265;42.694;23.282;2024-03-07T11:24:24;8.83;;;5.37;;
6463;SDS011;3265;42.694;23.282;2024-03-07T11:26:53;8.77;;;4.70;;
6463;SDS011;3265;42.694;23.282;2024-03-07T11:32:09;8.70;;;5.77;;
6463;SDS011;3265;42.694;23.282;2024-03-07T11:34:38;9.70;;;6.07;;
6463;SDS011;3265;42.694;23.282;2024-03-07T11:37:08;9.00;;;6.37;;
6463;SDS011;3265;42.694;23.282;2024-03-07T11:39:43;8.60;;;5.67;;
6463;SDS011;3265;42.694;23.282;2024-03-07T11:42:22;9.80;;;5.60;;
6463;SDS011;3265;42.694;23.282;2024-03-07T11:44:50;9.17;;;5.30;;
6463;SDS011;3265;42.694;23.282;2024-03-07T11:47:35;7.13;;;5.33;;
6463;SDS011;3265;42.694;23.282;2024-03-07T11:50:04;7.60;;;5.10;;
6463;SDS011;3265;42.694;23.282;2024-03-07T11:52:38;6.67;;;5.20;;
6463;SDS011;3265;42.694;23.282;2024-03-07T11:55:07;8.60;;;5.50;;
6463;SDS011;3265;42.694;23.282;2024-03-07T12:00:50;6.73;;;5.37;;
6463;SDS011;3265;42.694;23.282;2024-03-07T12:03:18;12.40;;;5.57;;
6463;SDS011;3265;42.694;23.282;2024-03-07T12:06:17;9.53;;;5.80;;
6463;SDS011;3265;42.694;23.282;2024-03-07T12:08:47;7.70;;;5.70;;
6463;SDS011;3265;42.694;23.282;2024-03-07T12:11:14;6.30;;;5.10;;
6463;SDS011;3265;42.694;23.282;2024-03-07T12:13:54;8.43;;;5.03;;
6463;SDS011;3265;42.694;23.282;2024-03-07T12:18:52;9.03;;;5.43;;
6463;SDS011;3265;42.694;23.282;2024-03-07T12:21:33;8.00;;;5.30;;
6463;SDS011;3265;42.694;23.282;2024-03-07T12:27:05;7.17;;;5.13;;
6463;SDS011;3265;42.694;23.282;2024-03-07T12:35:57;8.70;;;5.10;;
6463;SDS011;3265;42.694;23.282;2024-03-07T12:38:32;6.70;;;4.63;;
6463;SDS011;3265;42.694;23.282;2024-03-07T12:41:02;11.03;;;5.77;;
6463;SDS011;3265;42.694;23.282;2024-03-07T12:52:18;9.30;;;5.37;;
6463;SDS011;3265;42.694;23.282;2024-03-07T13:00:55;12.20;;;6.77;;
6463;SDS011;3265;42.694;23.282;2024-03-07T13:03:22;15.10;;;7.60;;
6463;SDS011;3265;42.694;23.282;2024-03-07T13:05:53;9.33;;;6.53;;
6463;SDS011;3265;42.694;23.282;2024-03-07T13:08:22;10.67;;;6.90;;
6463;SDS011;3265;42.694;23.282;2024-03-07T13:10:51;10.57;;;7.33;;
6463;SDS011;3265;42.694;23.282;2024-03-07T13:13:20;14.27;;;7.47;;
6463;SDS011;3265;42.694;23.282;2024-03-07T13:15:50;13.53;;;7.53;;
6463;SDS011;3265;42.694;23.282;2024-03-07T13:18:20;6.93;;;5.07;;
6463;SDS011;3265;42.694;23.282;2024-03-07T13:20:48;9.10;;;3.50;;
6463;SDS011;3265;42.694;23.282;2024-03-07T13:23:16;4.60;;;2.17;;
6463;SDS011;3265;42.694;23.282;2024-03-07T13:25:45;3.67;;;2.00;;
6463;SDS011;3265;42.694;23.282;2024-03-07T13:28:16;6.90;;;2.20;;
6463;SDS011;3265;42.694;23.282;2024-03-07T13:30:57;10.63;;;2.80;;
6463;SDS011;3265;42.694;23.282;2024-03-07T13:33:54;5.30;;;2.80;;
6463;SDS011;3265;42.694;23.282;2024-03-07T13:36:35;5.50;;;3.43;;
6463;SDS011;3265;42.694;23.282;2024-03-07T13:39:03;9.03;;;3.80;;
6463;SDS011;3265;42.694;23.282;2024-03-07T13:45:17;7.40;;;3.30;;
6463;SDS011;3265;42.694;23.282;2024-03-07T13:48:04;8.77;;;3.23;;
6463;SDS011;3265;42.694;23.282;2024-03-07T13:50:45;9.07;;;4.10;;
6463;SDS011;3265;42.694;23.282;2024-03-07T13:53:34;8.97;;;3.90;;
6463;SDS011;3265;42.694;23.282;2024-03-07T13:57:05;8.20;;;4.60;;
6463;SDS011;3265;42.694;23.282;2024-03-07T14:00:20;8.47;;;5.07;;
6463;SDS011;3265;42.694;23.282;2024-03-07T14:03:14;7.03;;;4.77;;
6463;SDS011;3265;42.694;23.282;2024-03-07T14:06:10;8.33;;;4.87;;
6463;SDS011;3265;42.694;23.282;2024-03-07T14:09:11;8.33;;;5.10;;
6463;SDS011;3265;42.694;23.282;2024-03-07T14:12:21;7.50;;;5.20;;
6463;SDS011;3265;42.694;23.282;2024-03-07T14:15:18;10.93;;;5.77;;
6463;SDS011;3265;42.694;23.282;2024-03-07T14:18:34;8.10;;;5.40;;
6463;SDS011;3265;42.694;23.282;2024-03-07T14:27:49;8.00;;;5.60;;
6463;SDS011;3265;42.694;23.282;2024-03-07T14:30:28;11.67;;;5.83;;
6463;SDS011;3265;42.694;23.282;2024-03-07T14:33:11;13.10;;;5.30;;
6463;SDS011;3265;42.694;23.282;2024-03-07T14:38:57;9.97;;;5.53;;
6463;SDS011;3265;42.694;23.282;2024-03-07T14:48:04;8.83;;;5.83;;
6463;SDS011;3265;42.694;23.282;2024-03-07T14:50:35;9.83;;;5.63;;
6463;SDS011;3265;42.694;23.282;2024-03-07T14:53:05;12.27;;;6.33;;
6463;SDS011;3265;42.694;23.282;2024-03-07T14:55:40;10.60;;;6.40;;
6463;SDS011;3265;42.694;23.282;2024-03-07T14:58:08;10.83;;;6.93;;
6463;SDS011;3265;42.694;23.282;2024-03-07T15:00:36;11.80;;;7.93;;
6463;SDS011;3265;42.694;23.282;2024-03-07T15:03:06;15.83;;;8.73;;
6463;SDS011;3265;42.694;23.282;2024-03-07T15:05:35;14.97;;;9.10;;
6463;SDS011;3265;42.694;23.282;2024-03-07T15:08:10;13.97;;;9.27;;
6463;SDS011;3265;42.694;23.282;2024-03-07T15:16:20;13.37;;;8.80;;
6463;SDS011;3265;42.694;23.282;2024-03-07T15:18:50;14.70;;;8.70;;
6463;SDS011;3265;42.694;23.282;2024-03-07T15:21:19;12.50;;;8.80;;
6463;SDS011;3265;42.694;23.282;2024-03-07T15:23:46;13.03;;;8.90;;
6463;SDS011;3265;42.694;23.282;2024-03-07T15:26:17;12.87;;;8.80;;
6463;SDS011;3265;42.694;23.282;2024-03-07T15:29:04;13.33;;;8.90;;
6463;SDS011;3265;42.694;23.282;2024-03-07T15:37:00;12.35;;;8.43;;
6463;SDS011;3265;42.694;23.282;2024-03-07T15:39:39;11.40;;;8.37;;
6463;SDS011;3265;42.694;23.282;2024-03-07T15:42:14;12.87;;;8.13;;
6463;SDS011;3265;42.694;23.282;2024-03-07T16:05:42;12.40;;;7.90;;
6463;SDS011;3265;42.694;23.282;2024-03-07T16:08:13;11.37;;;7.63;;
6463;SDS011;3265;42.694;23.282;2024-03-07T16:14:08;12.97;;;7.97;;
6463;SDS011;3265;42.694;23.282;2024-03-07T16:16:39;11.37;;;7.40;;
6463;SDS011;3265;42.694;23.282;2024-03-07T16:19:22;11.23;;;8.07;;
6463;SDS011;3265;42.694;23.282;2024-03-07T16:21:51;13.80;;;9.30;;
6463;SDS011;3265;42.694;23.282;2024-03-07T16:24:18;13.60;;;8.97;;
6463;SDS011;3265;42.694;23.282;2024-03-07T16:26:47;15.60;;;9.40;;
6463;SDS011;3265;42.694;23.282;2024-03-07T16:29:14;13.30;;;8.90;;
6463;SDS011;3265;42.694;23.282;2024-03-07T16:31:41;15.07;;;9.17;;
6463;SDS011;3265;42.694;23.282;2024-03-07T16:34:08;14.33;;;8.93;;
6463;SDS011;3265;42.694;23.282;2024-03-07T16:36:35;15.47;;;9.67;;
6463;SDS011;3265;42.694;23.282;2024-03-07T16:39:03;14.20;;;9.40;;
6463;SDS011;3265;42.694;23.282;2024-03-07T16:41:37;16.57;;;9.70;;
6463;SDS011;3265;42.694;23.282;2024-03-07T16:44:05;12.80;;;8.50;;
6463;SDS011;3265;42.694;23.282;2024-03-07T16:46:34;13.33;;;8.47;;
6463;SDS011;3265;42.694;23.282;2024-03-07T16:49:15;13.67;;;8.87;;
6463;SDS011;3265;42.694;23.282;2024-03-07T16:51:48;13.17;;;8.57;;
6463;SDS011;3265;42.694;23.282;2024-03-07T16:54:16;17.53;;;9.27;;
6463;SDS011;3265;42.694;23.282;2024-03-07T16:56:51;14.13;;;8.90;;
6463;SDS011;3265;42.694;23.282;2024-03-07T16:59:23;19.10;;;9.27;;
6463;SDS011;3265;42.694;23.282;2024-03-07T17:01:53;14.30;;;9.03;;
6463;SDS011;3265;42.694;23.282;2024-03-07T17:04:20;16.60;;;10.20;;
6463;SDS011;3265;42.694;23.282;2024-03-07T17:07:07;15.10;;;9.47;;
6463;SDS011;3265;42.694;23.282;2024-03-07T17:17:59;16.47;;;10.83;;
6463;SDS011;3265;42.694;23.282;2024-03-07T17:46:51;27.77;;;14.40;;
6463;SDS011;3265;42.694;23.282;2024-03-07T17:51:54;26.93;;;14.97;;
6463;SDS011;3265;42.694;23.282;2024-03-07T17:54:22;25.53;;;15.03;;
6463;SDS011;3265;42.694;23.282;2024-03-07T17:56:52;24.10;;;15.57;;
6463;SDS011;3265;42.694;23.282;2024-03-07T18:17:16;28.03;;;16.80;;
6463;SDS011;3265;42.694;23.282;2024-03-07T18:19:48;31.33;;;16.97;;
6463;SDS011;3265;42.694;23.282;2024-03-07T18:22:16;28.00;;;16.30;;
6463;SDS011;3265;42.694;23.282;2024-03-07T18:24:43;31.27;;;17.07;;
6463;SDS011;3265;42.694;23.282;2024-03-07T18:27:20;25.57;;;16.30;;
6463;SDS011;3265;42.694;23.282;2024-03-07T18:35:59;29.93;;;17.50;;
6463;SDS011;3265;42.694;23.282;2024-03-07T18:38:27;32.57;;;16.80;;
6463;SDS011;3265;42.694;23.282;2024-03-07T18:40:54;26.03;;;15.87;;
6463;SDS011;3265;42.694;23.282;2024-03-07T18:43:57;27.77;;;15.47;;
6463;SDS011;3265;42.694;23.282;2024-03-07T18:46:56;24.90;;;14.97;;
6463;SDS011;3265;42.694;23.282;2024-03-07T18:49:28;23.80;;;13.87;;
6463;SDS011;3265;42.694;23.282;2024-03-07T18:51:57;23.33;;;12.93;;
6463;SDS011;3265;42.694;23.282;2024-03-07T18:54:38;20.03;;;12.00;;
6463;SDS011;3265;42.694;23.282;2024-03-07T18:57:10;22.13;;;12.90;;
6463;SDS011;3265;42.694;23.282;2024-03-07T19:00:16;23.87;;;12.50;;
6463;SDS011;3265;42.694;23.282;2024-03-07T19:03:12;19.13;;;11.57;;
6463;SDS011;3265;42.694;23.282;2024-03-07T19:05:41;19.00;;;11.83;;
6463;SDS011;3265;42.694;23.282;2024-03-07T19:08:12;20.30;;;11.80;;
6463;SDS011;3265;42.694;23.282;2024-03-07T19:11:01;19.27;;;12.00;;
6463;SDS011;3265;42.694;23.282;2024-03-07T19:14:01;18.53;;;11.37;;
6463;SDS011;3265;42.694;23.282;2024-03-07T19:16:28;13.63;;;9.07;;
6463;SDS011;3265;42.694;23.282;2024-03-07T19:22:23;12.03;;;6.60;;
6463;SDS011;3265;42.694;23.282;2024-03-07T19:25:15;8.30;;;5.43;;
6463;SDS011;3265;42.694;23.282;2024-03-07T19:30:56;9.00;;;5.03;;
6463;SDS011;3265;42.694;23.282;2024-03-07T19:33:34;7.77;;;5.40;;
6463;SDS011;3265;42.694;23.282;2024-03-07T19:36:02;8.07;;;5.47;;
6463;SDS011;3265;42.694;23.282;2024-03-07T19:38:31;8.10;;;5.53;;
6463;SDS011;3265;42.694;23.282;2024-03-07T19:40:59;8.77;;;5.70;;
6463;SDS011;3265;42.694;23.282;2024-03-07T19:43:29;11.57;;;7.23;;
6463;SDS011;3265;42.694;23.282;2024-03-07T19:46:05;12.17;;;8.17;;
6463;SDS011;3265;42.694;23.282;2024-03-07T19:48:46;13.07;;;8.10;;
6463;SDS011;3265;42.694;23.282;2024-03-07T19:51:23;15.37;;;9.73;;
6463;SDS011;3265;42.694;23.282;2024-03-07T19:53:50;15.93;;;9.70;;
6463;SDS011;3265;42.694;23.282;2024-03-07T19:59:05;15.73;;;9.50;;
6463;SDS011;3265;42.694;23.282;2024-03-07T20:01:35;18.03;;;10.20;;
6463;SDS011;3265;42.694;23.282;2024-03-07T20:04:23;17.87;;;9.90;;
6463;SDS011;3265;42.694;23.282;2024-03-07T20:06:50;17.10;;;10.60;;
6463;SDS011;3265;42.694;23.282;2024-03-07T20:09:17;17.73;;;10.17;;
6463;SDS011;3265;42.694;23.282;2024-03-07T20:14:57;15.20;;;9.87;;
6463;SDS011;3265;42.694;23.282;2024-03-07T20:20:43;11.93;;;7.63;;
6463;SDS011;3265;42.694;23.282;2024-03-07T20:23:12;13.17;;;8.23;;
6463;SDS011;3265;42.694;23.282;2024-03-07T20:25:52;11.73;;;7.57;;
6463;SDS011;3265;42.694;23.282;2024-03-07T20:28:21;12.53;;;7.83;;
6463;SDS011;3265;42.694;23.282;2024-03-07T20:30:48;13.30;;;7.87;;
6463;SDS011;3265;42.694;23.282;2024-03-07T20:33:17;13.20;;;8.57;;
6463;SDS011;3265;42.694;23.282;2024-03-07T20:36:04;14.20;;;8.60;;
6463;SDS011;3265;42.694;23.282;2024-03-07T20:38:33;14.77;;;9.27;;
6463;SDS011;3265;42.694;23.282;2024-03-07T20:41:41;17.77;;;10.67;;
6463;SDS011;3265;42.694;23.282;2024-03-07T20:44:25;21.50;;;12.57;;
6463;SDS011;3265;42.694;23.282;2024-03-07T20:46:53;21.63;;;12.83;;
6463;SDS011;3265;42.694;23.282;2024-03-07T20:49:21;23.27;;;13.20;;
6463;SDS011;3265;42.694;23.282;2024-03-07T20:52:09;25.20;;;14.93;;
6463;SDS011;3265;42.694;23.282;2024-03-07T20:54:38;26.27;;;14.40;;
6463;SDS011;3265;42.694;23.282;2024-03-07T20:57:07;25.30;;;15.43;;
6463;SDS011;3265;42.694;23.282;2024-03-07T20:59:40;23.13;;;13.57;;
6463;SDS011;3265;42.694;23.282;2024-03-07T21:02:10;23.63;;;13.87;;
6463;SDS011;3265;42.694;23.282;2024-03-07T21:20:50;16.13;;;9.53;;
6463;SDS011;3265;42.694;23.282;2024-03-07T21:23:25;14.50;;;9.30;;
6463;SDS011;3265;42.694;23.282;2024-03-07T21:38:50;19.83;;;10.37;;
6463;SDS011;3265;42.694;23.282;2024-03-07T21:41:17;17.40;;;10.60;;
6463;SDS011;3265;42.694;23.282;2024-03-07T21:43:46;22.53;;;11.10;;
6463;SDS011;3265;42.694;23.282;2024-03-07T21:46:13;17.20;;;10.33;;
6463;SDS011;3265;42.694;23.282;2024-03-07T21:52:01;15.50;;;9.53;;
6463;SDS011;3265;42.694;23.282;2024-03-07T21:54:33;13.00;;;8.27;;
6463;SDS011;3265;42.694;23.282;2024-03-07T21:57:03;14.93;;;9.40;;
6463;SDS011;3265;42.694;23.282;2024-03-07T21:59:32;14.03;;;9.00;;
6463;SDS011;3265;42.694;23.282;2024-03-07T22:02:04;12.27;;;8.53;;
6463;SDS011;3265;42.694;23.282;2024-03-07T22:04:38;13.27;;;8.57;;
6463;SDS011;3265;42.694;23.282;2024-03-07T22:07:06;14.33;;;8.97;;
6463;SDS011;3265;42.694;23.282;2024-03-07T22:09:37;14.70;;;8.60;;
6463;SDS011;3265;42.694;23.282;2024-03-07T22:12:04;13.03;;;8.23;;
6463;SDS011;3265;42.694;23.282;2024-03-07T22:14:31;11.40;;;7.60;;
6463;SDS011;3265;42.694;23.282;2024-03-07T22:17:14;12.93;;;7.87;;
6463;SDS011;3265;42.694;23.282;2024-03-07T22:19:44;11.60;;;7.43;;
6463;SDS011;3265;42.694;23.282;2024-03-07T22:22:11;11.63;;;7.47;;
6463;SDS011;3265;42.694;23.282;2024-03-07T22:24:43;13.13;;;7.43;;
6463;SDS011;3265;42.694;23.282;2024-03-07T22:27:11;11.47;;;7.30;;
6463;SDS011;3265;42.694;23.282;2024-03-07T22:29:40;11.57;;;6.87;;
6463;SDS011;3265;42.694;23.282;2024-03-07T22:32:09;12.77;;;7.17;;
6463;SDS011;3265;42.694;23.282;2024-03-07T22:51:59;9.03;;;5.77;;
6463;SDS011;3265;42.694;23.282;2024-03-07T22:57:43;8.27;;;5.73;;
6463;SDS011;3265;42.694;23.282;2024-03-07T23:05:59;7.70;;;5.37;;
6463;SDS011;3265;42.694;23.282;2024-03-07T23:08:27;7.17;;;4.43;;
6463;SDS011;3265;42.694;23.282;2024-03-07T23:10:54;5.70;;;4.37;;
6463;SDS011;3265;42.694;23.282;2024-03-07T23:13:22;5.90;;;4.20;;
6463;SDS011;3265;42.694;23.282;2024-03-07T23:15:49;4.60;;;3.80;;
6463;SDS011;3265;42.694;23.282;2024-03-07T23:18:16;4.57;;;3.37;;
6463;SDS011;3265;42.694;23.282;2024-03-07T23:20:43;5.17;;;3.40;;
6463;SDS011;3265;42.694;23.282;2024-03-07T23:23:10;4.07;;;2.80;;
6463;SDS011;3265;42.694;23.282;2024-03-07T23:25:39;3.93;;;2.80;;
6463;SDS011;3265;42.694;23.282;2024-03-07T23:28:06;4.20;;;2.80;;
6463;SDS011;3265;42.694;23.282;2024-03-07T23:37:34;2.87;;;2.30;;
6463;SDS011;3265;42.694;23.282;2024-03-07T23:46:32;2.57;;;2.10;;
